sensor_id;sensor_type;location;lat;lon;timestamp;temperature;humidity
46091;DHT22;31826;53.572;10.170;2023-07-30T00:00:49;16.70;99.90
46091;DHT22;31826;53.572;10.170;2023-07-30T00:03:16;16.70;99.90
46091;DHT22;31826;53.572;10.170;2023-07-30T00:05:41;16.80;99.90
46091;DHT22;31826;53.572;10.170;2023-07-30T00:08:07;16.80;99.90
46091;DHT22;31826;53.572;10.170;2023-07-30T00:10:35;16.80;99.90
46091;DHT22;31826;53.572;10.170;2023-07-30T00:13:01;16.90;99.90
46091;DHT22;31826;53.572;10.170;2023-07-30T00:15:26;16.70;99.90
46091;DHT22;31826;53.572;10.170;2023-07-30T00:17:52;16.70;99.90
46091;DHT22;31826;53.572;10.170;2023-07-30T00:20:18;16.70;99.90
46091;DHT22;31826;53.572;10.170;2023-07-30T00:22:43;16.60;99.90
46091;DHT22;31826;53.572;10.170;2023-07-30T00:25:09;16.70;99.90
46091;DHT22;31826;53.572;10.170;2023-07-30T00:27:35;16.70;99.90
46091;DHT22;31826;53.572;10.170;2023-07-30T00:30:00;16.80;99.90
46091;DHT22;31826;53.572;10.170;2023-07-30T00:32:26;16.80;99.90
46091;DHT22;31826;53.572;10.170;2023-07-30T00:34:52;16.80;99.90
46091;DHT22;31826;53.572;10.170;2023-07-30T00:37:17;16.80;99.90
46091;DHT22;31826;53.572;10.170;2023-07-30T00:39:43;16.60;99.90
46091;DHT22;31826;53.572;10.170;2023-07-30T00:42:09;16.60;99.90
46091;DHT22;31826;53.572;10.170;2023-07-30T00:44:34;16.50;99.90
46091;DHT22;31826;53.572;10.170;2023-07-30T00:47:00;16.50;99.90
46091;DHT22;31826;53.572;10.170;2023-07-30T00:49:26;16.50;99.90
46091;DHT22;31826;53.572;10.170;2023-07-30T00:51:52;16.40;99.90
46091;DHT22;31826;53.572;10.170;2023-07-30T00:54:21;16.60;99.90
46091;DHT22;31826;53.572;10.170;2023-07-30T00:56:50;16.50;99.90
46091;DHT22;31826;53.572;10.170;2023-07-30T00:59:17;16.50;99.90
46091;DHT22;31826;53.572;10.170;2023-07-30T01:01:43;16.50;99.90
46091;DHT22;31826;53.572;10.170;2023-07-30T01:04:10;16.50;99.90
46091;DHT22;31826;53.572;10.170;2023-07-30T01:06:35;16.50;99.90
46091;DHT22;31826;53.572;10.170;2023-07-30T01:09:01;16.50;99.90
46091;DHT22;31826;53.572;10.170;2023-07-30T01:11:27;16.50;99.90
46091;DHT22;31826;53.572;10.170;2023-07-30T01:13:54;16.50;99.90
46091;DHT22;31826;53.572;10.170;2023-07-30T01:16:20;16.40;99.90
46091;DHT22;31826;53.572;10.170;2023-07-30T01:18:46;16.40;99.90
46091;DHT22;31826;53.572;10.170;2023-07-30T01:21:12;16.40;99.90
46091;DHT22;31826;53.572;10.170;2023-07-30T01:23:37;16.40;99.90
46091;DHT22;31826;53.572;10.170;2023-07-30T01:26:10;16.40;99.90
46091;DHT22;31826;53.572;10.170;2023-07-30T01:28:39;16.30;99.90
46091;DHT22;31826;53.572;10.170;2023-07-30T01:31:08;16.20;99.90
46091;DHT22;31826;53.572;10.170;2023-07-30T01:33:35;16.30;99.90
46091;DHT22;31826;53.572;10.170;2023-07-30T01:36:02;16.30;99.90
46091;DHT22;31826;53.572;10.170;2023-07-30T01:38:30;16.40;99.90
46091;DHT22;31826;53.572;10.170;2023-07-30T01:40:55;16.30;99.90
46091;DHT22;31826;53.572;10.170;2023-07-30T01:43:21;16.20;99.90
46091;DHT22;31826;53.572;10.170;2023-07-30T01:45:47;16.10;99.90
46091;DHT22;31826;53.572;10.170;2023-07-30T01:48:13;16.00;99.90
46091;DHT22;31826;53.572;10.170;2023-07-30T01:50:38;16.00;99.90
46091;DHT22;31826;53.572;10.170;2023-07-30T01:53:04;16.10;99.90
46091;DHT22;31826;53.572;10.170;2023-07-30T01:55:30;16.10;99.90
46091;DHT22;31826;53.572;10.170;2023-07-30T01:57:55;16.10;99.90
46091;DHT22;31826;53.572;10.170;2023-07-30T02:00:21;16.00;99.90
46091;DHT22;31826;53.572;10.170;2023-07-30T02:02:47;16.00;99.90
46091;DHT22;31826;53.572;10.170;2023-07-30T02:05:12;16.00;99.90
46091;DHT22;31826;53.572;10.170;2023-07-30T02:07:38;15.90;99.90
46091;DHT22;31826;53.572;10.170;2023-07-30T02:10:04;15.90;99.90
46091;DHT22;31826;53.572;10.170;2023-07-30T02:12:30;15.90;99.90
46091;DHT22;31826;53.572;10.170;2023-07-30T02:14:55;15.90;99.90
46091;DHT22;31826;53.572;10.170;2023-07-30T02:17:21;15.90;99.90
46091;DHT22;31826;53.572;10.170;2023-07-30T02:19:47;15.80;99.90
46091;DHT22;31826;53.572;10.170;2023-07-30T02:22:13;15.90;99.90
46091;DHT22;31826;53.572;10.170;2023-07-30T02:24:39;15.80;99.90
46091;DHT22;31826;53.572;10.170;2023-07-30T02:27:04;16.00;99.90
46091;DHT22;31826;53.572;10.170;2023-07-30T02:29:30;16.00;99.90
46091;DHT22;31826;53.572;10.170;2023-07-30T02:31:56;16.00;99.90
46091;DHT22;31826;53.572;10.170;2023-07-30T02:34:22;16.10;99.90
46091;DHT22;31826;53.572;10.170;2023-07-30T02:36:49;16.10;99.90
46091;DHT22;31826;53.572;10.170;2023-07-30T02:39:14;16.00;99.90
46091;DHT22;31826;53.572;10.170;2023-07-30T02:41:40;16.10;99.90
46091;DHT22;31826;53.572;10.170;2023-07-30T02:44:06;16.10;99.90
46091;DHT22;31826;53.572;10.170;2023-07-30T02:46:31;16.10;99.90
46091;DHT22;31826;53.572;10.170;2023-07-30T02:48:57;16.10;99.90
46091;DHT22;31826;53.572;10.170;2023-07-30T02:51:22;16.10;99.90
46091;DHT22;31826;53.572;10.170;2023-07-30T02:53:52;16.00;99.90
46091;DHT22;31826;53.572;10.170;2023-07-30T02:56:18;16.00;99.90
46091;DHT22;31826;53.572;10.170;2023-07-30T02:58:44;16.00;99.90
46091;DHT22;31826;53.572;10.170;2023-07-30T03:01:10;16.00;99.90
46091;DHT22;31826;53.572;10.170;2023-07-30T03:03:35;16.10;99.90
46091;DHT22;31826;53.572;10.170;2023-07-30T03:06:03;16.00;99.90
46091;DHT22;31826;53.572;10.170;2023-07-30T03:08:29;15.90;99.90
46091;DHT22;31826;53.572;10.170;2023-07-30T03:10:57;15.90;99.90
46091;DHT22;31826;53.572;10.170;2023-07-30T03:13:23;15.90;99.90
46091;DHT22;31826;53.572;10.170;2023-07-30T03:15:49;15.70;99.90
46091;DHT22;31826;53.572;10.170;2023-07-30T03:18:14;15.80;99.90
46091;DHT22;31826;53.572;10.170;2023-07-30T03:20:40;15.80;99.90
46091;DHT22;31826;53.572;10.170;2023-07-30T03:23:06;15.70;99.90
46091;DHT22;31826;53.572;10.170;2023-07-30T03:25:31;15.70;99.90
46091;DHT22;31826;53.572;10.170;2023-07-30T03:27:57;15.70;99.90
46091;DHT22;31826;53.572;10.170;2023-07-30T03:30:23;15.70;99.90
46091;DHT22;31826;53.572;10.170;2023-07-30T03:32:48;15.60;99.90
46091;DHT22;31826;53.572;10.170;2023-07-30T03:35:14;15.70;99.90
46091;DHT22;31826;53.572;10.170;2023-07-30T03:37:39;15.70;99.90
46091;DHT22;31826;53.572;10.170;2023-07-30T03:40:06;15.70;99.90
46091;DHT22;31826;53.572;10.170;2023-07-30T03:42:31;15.70;99.90
46091;DHT22;31826;53.572;10.170;2023-07-30T03:44:57;15.70;99.90
46091;DHT22;31826;53.572;10.170;2023-07-30T03:47:23;15.70;99.90
46091;DHT22;31826;53.572;10.170;2023-07-30T03:49:48;15.80;99.90
46091;DHT22;31826;53.572;10.170;2023-07-30T03:52:14;15.80;99.90
46091;DHT22;31826;53.572;10.170;2023-07-30T03:54:40;15.70;99.90
46091;DHT22;31826;53.572;10.170;2023-07-30T03:57:05;15.80;99.90
46091;DHT22;31826;53.572;10.170;2023-07-30T03:59:31;15.70;99.90
46091;DHT22;31826;53.572;10.170;2023-07-30T04:01:57;15.70;99.90
46091;DHT22;31826;53.572;10.170;2023-07-30T04:04:24;15.70;99.90
46091;DHT22;31826;53.572;10.170;2023-07-30T04:06:49;15.70;99.90
46091;DHT22;31826;53.572;10.170;2023-07-30T04:09:15;15.70;99.90
46091;DHT22;31826;53.572;10.170;2023-07-30T04:11:40;15.70;99.90
46091;DHT22;31826;53.572;10.170;2023-07-30T04:14:06;15.70;99.90
46091;DHT22;31826;53.572;10.170;2023-07-30T04:16:34;15.70;99.90
46091;DHT22;31826;53.572;10.170;2023-07-30T04:19:00;15.70;99.90
46091;DHT22;31826;53.572;10.170;2023-07-30T04:21:25;15.70;99.90
46091;DHT22;31826;53.572;10.170;2023-07-30T04:23:51;15.70;99.90
46091;DHT22;31826;53.572;10.170;2023-07-30T04:26:17;15.70;99.90
46091;DHT22;31826;53.572;10.170;2023-07-30T04:28:42;15.80;99.90
46091;DHT22;31826;53.572;10.170;2023-07-30T04:31:08;15.80;99.90
46091;DHT22;31826;53.572;10.170;2023-07-30T04:33:34;15.80;99.90
46091;DHT22;31826;53.572;10.170;2023-07-30T04:36:00;15.80;99.90
46091;DHT22;31826;53.572;10.170;2023-07-30T04:38:25;15.80;99.90
46091;DHT22;31826;53.572;10.170;2023-07-30T04:40:51;15.80;99.90
46091;DHT22;31826;53.572;10.170;2023-07-30T04:43:17;15.90;99.90
46091;DHT22;31826;53.572;10.170;2023-07-30T04:45:43;16.00;99.90
46091;DHT22;31826;53.572;10.170;2023-07-30T04:48:08;16.00;99.90
46091;DHT22;31826;53.572;10.170;2023-07-30T04:50:34;16.00;99.90
46091;DHT22;31826;53.572;10.170;2023-07-30T04:53:00;16.10;99.90
46091;DHT22;31826;53.572;10.170;2023-07-30T04:55:26;16.10;99.90
46091;DHT22;31826;53.572;10.170;2023-07-30T04:57:51;16.10;99.90
46091;DHT22;31826;53.572;10.170;2023-07-30T05:00:17;16.10;99.90
46091;DHT22;31826;53.572;10.170;2023-07-30T05:02:43;16.10;99.90
46091;DHT22;31826;53.572;10.170;2023-07-30T05:05:08;16.20;99.90
46091;DHT22;31826;53.572;10.170;2023-07-30T05:07:34;16.20;99.90
46091;DHT22;31826;53.572;10.170;2023-07-30T05:10:00;16.30;99.90
46091;DHT22;31826;53.572;10.170;2023-07-30T05:12:25;16.30;99.90
46091;DHT22;31826;53.572;10.170;2023-07-30T05:14:52;16.30;99.90
46091;DHT22;31826;53.572;10.170;2023-07-30T05:17:17;16.40;99.90
46091;DHT22;31826;53.572;10.170;2023-07-30T05:19:43;16.40;99.90
46091;DHT22;31826;53.572;10.170;2023-07-30T05:22:09;16.50;99.90
46091;DHT22;31826;53.572;10.170;2023-07-30T05:24:34;16.60;99.90
46091;DHT22;31826;53.572;10.170;2023-07-30T05:27:02;16.60;99.90
46091;DHT22;31826;53.572;10.170;2023-07-30T05:29:28;16.60;99.90
46091;DHT22;31826;53.572;10.170;2023-07-30T05:31:53;16.70;99.90
46091;DHT22;31826;53.572;10.170;2023-07-30T05:34:19;16.60;99.90
46091;DHT22;31826;53.572;10.170;2023-07-30T05:36:45;16.60;99.90
46091;DHT22;31826;53.572;10.170;2023-07-30T05:39:10;16.60;99.90
46091;DHT22;31826;53.572;10.170;2023-07-30T05:41:36;16.70;99.90
46091;DHT22;31826;53.572;10.170;2023-07-30T05:44:02;16.80;99.90
46091;DHT22;31826;53.572;10.170;2023-07-30T05:46:27;16.70;99.90
46091;DHT22;31826;53.572;10.170;2023-07-30T05:48:53;16.80;99.90
46091;DHT22;31826;53.572;10.170;2023-07-30T05:51:19;16.80;99.90
46091;DHT22;31826;53.572;10.170;2023-07-30T05:53:44;16.90;99.90
46091;DHT22;31826;53.572;10.170;2023-07-30T05:56:10;17.00;99.90
46091;DHT22;31826;53.572;10.170;2023-07-30T05:58:38;17.00;99.90
46091;DHT22;31826;53.572;10.170;2023-07-30T06:01:04;17.10;99.90
46091;DHT22;31826;53.572;10.170;2023-07-30T06:03:29;17.10;99.90
46091;DHT22;31826;53.572;10.170;2023-07-30T06:05:55;17.10;99.90
46091;DHT22;31826;53.572;10.170;2023-07-30T06:08:20;17.10;99.90
46091;DHT22;31826;53.572;10.170;2023-07-30T06:10:46;17.00;99.90
46091;DHT22;31826;53.572;10.170;2023-07-30T06:13:12;17.10;99.90
46091;DHT22;31826;53.572;10.170;2023-07-30T06:15:38;17.10;99.90
46091;DHT22;31826;53.572;10.170;2023-07-30T06:18:04;17.20;99.90
46091;DHT22;31826;53.572;10.170;2023-07-30T06:20:30;17.30;99.90
46091;DHT22;31826;53.572;10.170;2023-07-30T06:22:56;17.30;99.90
46091;DHT22;31826;53.572;10.170;2023-07-30T06:25:21;17.30;99.90
46091;DHT22;31826;53.572;10.170;2023-07-30T06:27:47;17.30;99.90
46091;DHT22;31826;53.572;10.170;2023-07-30T06:30:13;17.30;99.90
46091;DHT22;31826;53.572;10.170;2023-07-30T06:32:38;17.30;99.90
46091;DHT22;31826;53.572;10.170;2023-07-30T06:35:05;17.30;99.90
46091;DHT22;31826;53.572;10.170;2023-07-30T06:37:30;17.30;99.90
46091;DHT22;31826;53.572;10.170;2023-07-30T06:39:56;17.30;99.90
46091;DHT22;31826;53.572;10.170;2023-07-30T06:42:22;17.30;99.90
46091;DHT22;31826;53.572;10.170;2023-07-30T06:44:47;17.30;99.90
46091;DHT22;31826;53.572;10.170;2023-07-30T06:47:13;17.40;99.90
46091;DHT22;31826;53.572;10.170;2023-07-30T06:49:39;17.30;99.90
46091;DHT22;31826;53.572;10.170;2023-07-30T06:52:04;17.40;99.90
46091;DHT22;31826;53.572;10.170;2023-07-30T06:54:30;17.40;99.90
46091;DHT22;31826;53.572;10.170;2023-07-30T06:56:56;17.50;99.90
46091;DHT22;31826;53.572;10.170;2023-07-30T06:59:21;17.50;99.90
46091;DHT22;31826;53.572;10.170;2023-07-30T07:01:47;17.60;99.90
46091;DHT22;31826;53.572;10.170;2023-07-30T07:04:13;17.70;99.90
46091;DHT22;31826;53.572;10.170;2023-07-30T07:06:39;17.80;99.90
46091;DHT22;31826;53.572;10.170;2023-07-30T07:09:05;17.80;99.90
46091;DHT22;31826;53.572;10.170;2023-07-30T07:11:30;17.90;99.90
46091;DHT22;31826;53.572;10.170;2023-07-30T07:13:56;17.90;99.90
46091;DHT22;31826;53.572;10.170;2023-07-30T07:16:22;18.00;99.90
46091;DHT22;31826;53.572;10.170;2023-07-30T07:18:48;17.90;99.90
46091;DHT22;31826;53.572;10.170;2023-07-30T07:21:15;18.00;99.90
46091;DHT22;31826;53.572;10.170;2023-07-30T07:23:40;18.00;99.90
46091;DHT22;31826;53.572;10.170;2023-07-30T07:26:06;18.10;99.90
46091;DHT22;31826;53.572;10.170;2023-07-30T07:28:32;18.20;99.90
46091;DHT22;31826;53.572;10.170;2023-07-30T07:30:57;18.20;99.90
46091;DHT22;31826;53.572;10.170;2023-07-30T07:33:23;18.00;99.90
46091;DHT22;31826;53.572;10.170;2023-07-30T07:35:49;18.10;99.90
46091;DHT22;31826;53.572;10.170;2023-07-30T07:38:15;18.20;99.90
46091;DHT22;31826;53.572;10.170;2023-07-30T07:40:40;18.10;99.90
46091;DHT22;31826;53.572;10.170;2023-07-30T07:43:07;18.10;99.90
46091;DHT22;31826;53.572;10.170;2023-07-30T07:45:33;18.10;99.90
46091;DHT22;31826;53.572;10.170;2023-07-30T07:47:59;18.00;99.90
46091;DHT22;31826;53.572;10.170;2023-07-30T07:50:25;18.10;99.90
46091;DHT22;31826;53.572;10.170;2023-07-30T07:52:51;18.30;99.90
46091;DHT22;31826;53.572;10.170;2023-07-30T07:55:17;18.40;99.90
46091;DHT22;31826;53.572;10.170;2023-07-30T07:57:42;18.70;99.90
46091;DHT22;31826;53.572;10.170;2023-07-30T08:00:08;18.80;99.90
46091;DHT22;31826;53.572;10.170;2023-07-30T08:02:34;19.00;99.90
46091;DHT22;31826;53.572;10.170;2023-07-30T08:05:00;19.00;99.90
46091;DHT22;31826;53.572;10.170;2023-07-30T08:07:26;19.20;99.90
46091;DHT22;31826;53.572;10.170;2023-07-30T08:09:51;19.30;99.90
46091;DHT22;31826;53.572;10.170;2023-07-30T08:12:19;19.30;99.90
46091;DHT22;31826;53.572;10.170;2023-07-30T08:14:44;19.20;99.90
46091;DHT22;31826;53.572;10.170;2023-07-30T08:17:10;19.30;99.90
46091;DHT22;31826;53.572;10.170;2023-07-30T08:19:36;19.40;99.90
46091;DHT22;31826;53.572;10.170;2023-07-30T08:22:01;19.50;99.90
46091;DHT22;31826;53.572;10.170;2023-07-30T08:24:27;19.50;99.90
46091;DHT22;31826;53.572;10.170;2023-07-30T08:26:53;19.60;99.90
46091;DHT22;31826;53.572;10.170;2023-07-30T08:29:19;19.80;99.90
46091;DHT22;31826;53.572;10.170;2023-07-30T08:31:44;20.10;99.90
46091;DHT22;31826;53.572;10.170;2023-07-30T08:34:10;20.10;99.90
46091;DHT22;31826;53.572;10.170;2023-07-30T08:36:36;20.20;99.90
46091;DHT22;31826;53.572;10.170;2023-07-30T08:39:02;20.20;99.90
46091;DHT22;31826;53.572;10.170;2023-07-30T08:41:29;20.10;99.90
46091;DHT22;31826;53.572;10.170;2023-07-30T08:43:55;20.00;99.90
46091;DHT22;31826;53.572;10.170;2023-07-30T08:46:21;20.10;99.90
46091;DHT22;31826;53.572;10.170;2023-07-30T08:48:46;20.20;99.90
46091;DHT22;31826;53.572;10.170;2023-07-30T08:51:13;20.30;99.90
46091;DHT22;31826;53.572;10.170;2023-07-30T08:53:39;20.40;99.90
46091;DHT22;31826;53.572;10.170;2023-07-30T08:56:07;20.50;99.90
46091;DHT22;31826;53.572;10.170;2023-07-30T08:58:35;20.70;99.90
46091;DHT22;31826;53.572;10.170;2023-07-30T09:01:06;20.70;99.90
46091;DHT22;31826;53.572;10.170;2023-07-30T09:03:36;20.80;99.90
46091;DHT22;31826;53.572;10.170;2023-07-30T09:06:03;20.90;99.90
46091;DHT22;31826;53.572;10.170;2023-07-30T09:08:29;20.90;99.90
46091;DHT22;31826;53.572;10.170;2023-07-30T09:10:56;20.80;99.90
46091;DHT22;31826;53.572;10.170;2023-07-30T09:13:22;20.60;99.90
46091;DHT22;31826;53.572;10.170;2023-07-30T09:15:49;20.30;99.90
46091;DHT22;31826;53.572;10.170;2023-07-30T09:18:17;20.20;99.90
46091;DHT22;31826;53.572;10.170;2023-07-30T09:20:44;20.20;99.90
46091;DHT22;31826;53.572;10.170;2023-07-30T09:23:10;20.10;99.90
46091;DHT22;31826;53.572;10.170;2023-07-30T09:25:36;20.10;99.90
46091;DHT22;31826;53.572;10.170;2023-07-30T09:28:02;20.10;99.90
46091;DHT22;31826;53.572;10.170;2023-07-30T09:30:29;20.10;99.90
46091;DHT22;31826;53.572;10.170;2023-07-30T09:32:57;20.10;99.90
46091;DHT22;31826;53.572;10.170;2023-07-30T09:35:24;20.00;99.90
46091;DHT22;31826;53.572;10.170;2023-07-30T09:37:57;20.10;99.90
46091;DHT22;31826;53.572;10.170;2023-07-30T09:40:31;20.20;99.90
46091;DHT22;31826;53.572;10.170;2023-07-30T09:42:57;20.30;99.90
46091;DHT22;31826;53.572;10.170;2023-07-30T09:45:24;20.40;99.90
46091;DHT22;31826;53.572;10.170;2023-07-30T09:47:52;20.50;99.90
46091;DHT22;31826;53.572;10.170;2023-07-30T09:50:19;20.60;99.90
46091;DHT22;31826;53.572;10.170;2023-07-30T09:52:45;20.60;99.90
46091;DHT22;31826;53.572;10.170;2023-07-30T09:55:12;20.60;99.90
46091;DHT22;31826;53.572;10.170;2023-07-30T09:57:38;20.40;99.90
46091;DHT22;31826;53.572;10.170;2023-07-30T10:00:05;20.60;99.90
46091;DHT22;31826;53.572;10.170;2023-07-30T10:02:32;20.50;99.90
46091;DHT22;31826;53.572;10.170;2023-07-30T10:05:02;20.60;99.90
46091;DHT22;31826;53.572;10.170;2023-07-30T10:07:28;20.70;99.90
46091;DHT22;31826;53.572;10.170;2023-07-30T10:09:58;20.80;99.90
46091;DHT22;31826;53.572;10.170;2023-07-30T10:12:28;20.70;99.90
46091;DHT22;31826;53.572;10.170;2023-07-30T10:14:56;20.90;99.90
46091;DHT22;31826;53.572;10.170;2023-07-30T10:17:22;20.90;99.90
46091;DHT22;31826;53.572;10.170;2023-07-30T10:19:49;20.80;99.90
46091;DHT22;31826;53.572;10.170;2023-07-30T10:25:01;20.70;99.90
46091;DHT22;31826;53.572;10.170;2023-07-30T10:27:38;20.60;99.90
46091;DHT22;31826;53.572;10.170;2023-07-30T10:30:10;20.60;99.90
46091;DHT22;31826;53.572;10.170;2023-07-30T10:35:08;20.70;99.90
46091;DHT22;31826;53.572;10.170;2023-07-30T10:37:34;20.70;99.90
46091;DHT22;31826;53.572;10.170;2023-07-30T10:40:00;20.90;99.90
46091;DHT22;31826;53.572;10.170;2023-07-30T10:42:35;21.00;99.90
46091;DHT22;31826;53.572;10.170;2023-07-30T10:45:00;21.00;99.90
46091;DHT22;31826;53.572;10.170;2023-07-30T10:47:29;21.10;99.90
46091;DHT22;31826;53.572;10.170;2023-07-30T10:50:01;21.20;99.90
46091;DHT22;31826;53.572;10.170;2023-07-30T10:52:27;21.30;99.90
46091;DHT22;31826;53.572;10.170;2023-07-30T10:55:00;21.20;99.90
46091;DHT22;31826;53.572;10.170;2023-07-30T10:57:30;21.10;99.90
46091;DHT22;31826;53.572;10.170;2023-07-30T10:59:58;21.20;99.90
46091;DHT22;31826;53.572;10.170;2023-07-30T11:02:24;21.10;99.90
46091;DHT22;31826;53.572;10.170;2023-07-30T11:04:50;21.40;99.90
46091;DHT22;31826;53.572;10.170;2023-07-30T11:07:17;21.40;99.90
46091;DHT22;31826;53.572;10.170;2023-07-30T11:09:44;21.40;99.90
46091;DHT22;31826;53.572;10.170;2023-07-30T11:12:10;21.30;99.90
46091;DHT22;31826;53.572;10.170;2023-07-30T11:14:36;21.10;99.90
46091;DHT22;31826;53.572;10.170;2023-07-30T11:17:01;21.10;99.90
46091;DHT22;31826;53.572;10.170;2023-07-30T11:19:28;21.00;99.90
46091;DHT22;31826;53.572;10.170;2023-07-30T11:21:56;21.00;99.90
46091;DHT22;31826;53.572;10.170;2023-07-30T11:24:37;21.00;99.90
46091;DHT22;31826;53.572;10.170;2023-07-30T11:27:04;20.90;99.90
46091;DHT22;31826;53.572;10.170;2023-07-30T11:29:30;21.10;99.90
46091;DHT22;31826;53.572;10.170;2023-07-30T11:31:57;21.40;99.90
46091;DHT22;31826;53.572;10.170;2023-07-30T11:34:25;21.50;99.90
46091;DHT22;31826;53.572;10.170;2023-07-30T11:36:52;21.70;99.90
46091;DHT22;31826;53.572;10.170;2023-07-30T11:39:18;22.00;99.90
46091;DHT22;31826;53.572;10.170;2023-07-30T11:41:44;22.60;99.90
46091;DHT22;31826;53.572;10.170;2023-07-30T11:44:33;23.00;99.90
46091;DHT22;31826;53.572;10.170;2023-07-30T11:46:58;23.10;99.90
46091;DHT22;31826;53.572;10.170;2023-07-30T11:49:24;23.30;99.90
46091;DHT22;31826;53.572;10.170;2023-07-30T11:51:50;22.90;99.10
46091;DHT22;31826;53.572;10.170;2023-07-30T11:54:23;22.90;99.90
46091;DHT22;31826;53.572;10.170;2023-07-30T11:56:56;22.80;99.50
46091;DHT22;31826;53.572;10.170;2023-07-30T11:59:22;22.60;99.90
46091;DHT22;31826;53.572;10.170;2023-07-30T12:01:48;22.60;99.90
46091;DHT22;31826;53.572;10.170;2023-07-30T12:04:14;22.60;99.90
46091;DHT22;31826;53.572;10.170;2023-07-30T12:06:43;22.40;99.20
46091;DHT22;31826;53.572;10.170;2023-07-30T12:09:13;22.80;99.00
46091;DHT22;31826;53.572;10.170;2023-07-30T12:11:56;23.00;98.40
46091;DHT22;31826;53.572;10.170;2023-07-30T12:14:25;23.30;97.90
46091;DHT22;31826;53.572;10.170;2023-07-30T12:16:58;23.30;97.30
46091;DHT22;31826;53.572;10.170;2023-07-30T12:19:24;23.10;96.90
46091;DHT22;31826;53.572;10.170;2023-07-30T12:21:50;23.00;97.00
46091;DHT22;31826;53.572;10.170;2023-07-30T12:24:15;22.60;98.10
46091;DHT22;31826;53.572;10.170;2023-07-30T12:26:41;22.40;98.80
46091;DHT22;31826;53.572;10.170;2023-07-30T12:29:07;22.00;98.20
46091;DHT22;31826;53.572;10.170;2023-07-30T12:31:32;21.70;99.90
46091;DHT22;31826;53.572;10.170;2023-07-30T12:33:58;21.70;99.90
46091;DHT22;31826;53.572;10.170;2023-07-30T12:36:24;21.90;99.90
46091;DHT22;31826;53.572;10.170;2023-07-30T12:38:50;21.90;99.90
46091;DHT22;31826;53.572;10.170;2023-07-30T12:41:18;22.20;98.90
46091;DHT22;31826;53.572;10.170;2023-07-30T12:43:45;22.80;98.60
46091;DHT22;31826;53.572;10.170;2023-07-30T12:46:11;23.10;96.90
46091;DHT22;31826;53.572;10.170;2023-07-30T12:48:37;23.70;97.80
46091;DHT22;31826;53.572;10.170;2023-07-30T12:51:04;24.00;95.60
46091;DHT22;31826;53.572;10.170;2023-07-30T12:53:29;24.40;95.30
46091;DHT22;31826;53.572;10.170;2023-07-30T12:55:55;24.00;94.60
46091;DHT22;31826;53.572;10.170;2023-07-30T12:58:21;23.90;94.30
46091;DHT22;31826;53.572;10.170;2023-07-30T13:00:46;23.50;94.90
46091;DHT22;31826;53.572;10.170;2023-07-30T13:03:12;23.30;95.70
46091;DHT22;31826;53.572;10.170;2023-07-30T13:05:38;23.20;96.00
46091;DHT22;31826;53.572;10.170;2023-07-30T13:08:03;23.40;97.10
46091;DHT22;31826;53.572;10.170;2023-07-30T13:10:29;23.30;95.20
46091;DHT22;31826;53.572;10.170;2023-07-30T13:12:55;23.00;95.50
46091;DHT22;31826;53.572;10.170;2023-07-30T13:15:20;22.80;95.60
46091;DHT22;31826;53.572;10.170;2023-07-30T13:17:46;22.50;95.60
46091;DHT22;31826;53.572;10.170;2023-07-30T13:20:12;22.20;96.20
46091;DHT22;31826;53.572;10.170;2023-07-30T13:22:37;21.80;96.30
46091;DHT22;31826;53.572;10.170;2023-07-30T13:25:03;21.60;97.40
46091;DHT22;31826;53.572;10.170;2023-07-30T13:27:29;20.90;99.90
46091;DHT22;31826;53.572;10.170;2023-07-30T13:29:55;19.80;99.90
46091;DHT22;31826;53.572;10.170;2023-07-30T13:32:21;19.00;99.90
46091;DHT22;31826;53.572;10.170;2023-07-30T13:34:46;18.40;99.90
46091;DHT22;31826;53.572;10.170;2023-07-30T13:37:12;18.10;99.90
46091;DHT22;31826;53.572;10.170;2023-07-30T13:39:39;17.60;99.90
46091;DHT22;31826;53.572;10.170;2023-07-30T13:42:04;17.30;99.90
46091;DHT22;31826;53.572;10.170;2023-07-30T13:44:30;17.10;99.90
46091;DHT22;31826;53.572;10.170;2023-07-30T13:46:56;17.10;99.90
46091;DHT22;31826;53.572;10.170;2023-07-30T13:49:22;17.00;99.90
46091;DHT22;31826;53.572;10.170;2023-07-30T13:51:47;16.90;99.90
46091;DHT22;31826;53.572;10.170;2023-07-30T13:54:13;16.80;99.90
46091;DHT22;31826;53.572;10.170;2023-07-30T13:56:39;16.70;99.90
46091;DHT22;31826;53.572;10.170;2023-07-30T13:59:05;16.80;99.90
46091;DHT22;31826;53.572;10.170;2023-07-30T14:01:31;16.70;99.90
46091;DHT22;31826;53.572;10.170;2023-07-30T14:03:56;16.70;99.90
46091;DHT22;31826;53.572;10.170;2023-07-30T14:06:23;16.70;99.90
46091;DHT22;31826;53.572;10.170;2023-07-30T14:08:49;16.80;99.90
46091;DHT22;31826;53.572;10.170;2023-07-30T14:11:14;16.90;99.90
46091;DHT22;31826;53.572;10.170;2023-07-30T14:13:40;17.00;99.90
46091;DHT22;31826;53.572;10.170;2023-07-30T14:16:06;17.00;99.90
46091;DHT22;31826;53.572;10.170;2023-07-30T14:18:33;17.20;99.90
46091;DHT22;31826;53.572;10.170;2023-07-30T14:20:59;17.30;99.90
46091;DHT22;31826;53.572;10.170;2023-07-30T14:23:24;17.50;99.90
46091;DHT22;31826;53.572;10.170;2023-07-30T14:25:50;17.70;99.90
46091;DHT22;31826;53.572;10.170;2023-07-30T14:28:16;18.20;99.90
46091;DHT22;31826;53.572;10.170;2023-07-30T14:30:41;18.40;99.90
46091;DHT22;31826;53.572;10.170;2023-07-30T14:33:10;18.80;99.90
46091;DHT22;31826;53.572;10.170;2023-07-30T14:35:36;19.00;99.90
46091;DHT22;31826;53.572;10.170;2023-07-30T14:38:04;19.30;99.90
46091;DHT22;31826;53.572;10.170;2023-07-30T14:40:30;19.50;99.90
46091;DHT22;31826;53.572;10.170;2023-07-30T14:42:56;19.50;99.90
46091;DHT22;31826;53.572;10.170;2023-07-30T14:45:22;19.50;99.90
46091;DHT22;31826;53.572;10.170;2023-07-30T14:47:47;19.50;99.90
46091;DHT22;31826;53.572;10.170;2023-07-30T14:50:13;19.80;99.90
46091;DHT22;31826;53.572;10.170;2023-07-30T14:52:39;20.00;99.90
46091;DHT22;31826;53.572;10.170;2023-07-30T14:55:05;20.30;99.90
46091;DHT22;31826;53.572;10.170;2023-07-30T14:57:31;20.40;99.90
46091;DHT22;31826;53.572;10.170;2023-07-30T14:59:58;20.30;99.90
46091;DHT22;31826;53.572;10.170;2023-07-30T15:02:26;20.40;99.90
46091;DHT22;31826;53.572;10.170;2023-07-30T15:04:53;20.50;99.90
46091;DHT22;31826;53.572;10.170;2023-07-30T15:07:19;20.50;99.90
46091;DHT22;31826;53.572;10.170;2023-07-30T15:09:45;20.50;99.90
46091;DHT22;31826;53.572;10.170;2023-07-30T15:12:12;20.40;99.90
46091;DHT22;31826;53.572;10.170;2023-07-30T15:14:38;20.30;99.90